Time;durP1;ratioP1;P1;durP2;ratioP2;P2;SDS_P1;SDS_P2;PMS_P1;PMS_P2;Temp;Humidity;BMP_temperature;BMP_pressure;BME280_temperature;BME280_humidity;BME280_pressure;Samples;Min_cycle;Max_cycle;Signal;HPM_P1;HPM_P2
2024/01/12 00:01:08;;;;;;;36.53;25.48;;;;;;;;;;5130075;27;20055;-51
2024/01/12 00:03:36;;;;;;;40.55;24.08;;;;;;;;;;5146915;27;20055;-52
2024/01/12 00:06:02;;;;;;;36.20;23.98;;;;;;;;;;5146405;27;20058;-51
2024/01/12 00:08:29;;;;;;;38.67;24.10;;;;;;;;;;5148371;27;20057;-52
2024/01/12 00:10:56;;;;;;;44.53;27.25;;;;;;;;;;5146273;27;20046;-52
2024/01/12 00:13:24;;;;;;;41.03;25.20;;;;;;;;;;5149273;27;20054;-50
2024/01/12 00:15:51;;;;;;;38.75;25.30;;;;;;;;;;5152414;27;20502;-50
2024/01/12 00:18:18;;;;;;;39.50;26.25;;;;;;;;;;5146802;27;20047;-53
2024/01/12 00:20:45;;;;;;;39.58;25.38;;;;;;;;;;5147012;27;20057;-52
2024/01/12 00:23:12;;;;;;;38.67;25.33;;;;;;;;;;5145333;27;20055;-53
2024/01/12 00:25:39;;;;;;;38.70;27.08;;;;;;;;;;5151616;27;20492;-50
2024/01/12 00:28:06;;;;;;;36.83;24.80;;;;;;;;;;5151131;27;20042;-49
2024/01/12 00:30:34;;;;;;;51.38;29.42;;;;;;;;;;5146437;27;20053;-49
2024/01/12 00:33:01;;;;;;;40.80;27.33;;;;;;;;;;5144872;27;20050;-52
2024/01/12 00:35:28;;;;;;;39.95;26.90;;;;;;;;;;5150531;27;20042;-52
2024/01/12 00:37:55;;;;;;;49.75;29.65;;;;;;;;;;5150513;27;20392;-52
2024/01/12 00:40:22;;;;;;;50.17;29.95;;;;;;;;;;5146922;27;20647;-51
2024/01/12 00:42:50;;;;;;;43.83;26.65;;;;;;;;;;5144418;27;20047;-52
2024/01/12 00:45:17;;;;;;;39.88;25.77;;;;;;;;;;5148648;27;20062;-53
2024/01/12 00:47:45;;;;;;;46.80;25.75;;;;;;;;;;5153087;27;20050;-52
2024/01/12 00:50:12;;;;;;;44.78;27.25;;;;;;;;;;5148160;27;20066;-52
2024/01/12 00:52:38;;;;;;;42.33;25.90;;;;;;;;;;5144666;27;20058;-51
2024/01/12 00:55:06;;;;;;;41.15;26.98;;;;;;;;;;5145903;27;20058;-52
2024/01/12 00:57:33;;;;;;;40.28;25.70;;;;;;;;;;5149586;27;20153;-52
2024/01/12 01:00:00;;;;;;;44.03;26.60;;;;;;;;;;5130789;27;20046;-50
2024/01/12 01:02:26;;;;;;;38.47;25.67;;;;;;;;;;5145328;27;21993;-49
2024/01/12 01:04:55;;;;;;;41.83;27.42;;;;;;;;;;5149676;27;20046;-50
2024/01/12 01:07:21;;;;;;;40.72;25.58;;;;;;;;;;5151056;27;20055;-53
2024/01/12 01:09:48;;;;;;;41.00;26.10;;;;;;;;;;5151849;27;20092;-51
2024/01/12 01:12:15;;;;;;;45.25;28.13;;;;;;;;;;5150500;27;20058;-54
2024/01/12 01:14:42;;;;;;;42.28;27.63;;;;;;;;;;5149915;27;20058;-51
2024/01/12 01:17:09;;;;;;;46.47;27.70;;;;;;;;;;5148596;27;20051;-50
2024/01/12 01:19:35;;;;;;;47.08;28.30;;;;;;;;;;5136748;27;20074;-53
2024/01/12 01:22:04;;;;;;;50.45;29.00;;;;;;;;;;5154043;27;20054;-53
2024/01/12 01:24:30;;;;;;;50.55;29.80;;;;;;;;;;5151001;27;20043;-53
2024/01/12 01:26:57;;;;;;;54.28;31.60;;;;;;;;;;5151773;27;20054;-52
2024/01/12 01:29:24;;;;;;;48.92;30.25;;;;;;;;;;5156807;27;20480;-52
2024/01/12 01:31:51;;;;;;;56.28;31.17;;;;;;;;;;5153223;27;20054;-50
2024/01/12 01:34:18;;;;;;;53.65;31.30;;;;;;;;;;5153696;27;20412;-50
2024/01/12 01:36:45;;;;;;;50.42;28.33;;;;;;;;;;5149673;27;20046;-51
2024/01/12 01:39:14;;;;;;;46.25;27.40;;;;;;;;;;5155185;27;20051;-51
2024/01/12 01:41:41;;;;;;;45.95;27.05;;;;;;;;;;5151458;27;20280;-49
2024/01/12 01:44:08;;;;;;;52.33;29.15;;;;;;;;;;5150987;27;20051;-50
2024/01/12 01:46:34;;;;;;;46.10;28.95;;;;;;;;;;5151371;27;20050;-51
2024/01/12 01:49:01;;;;;;;46.22;27.45;;;;;;;;;;5155650;27;20054;-49
2024/01/12 01:51:29;;;;;;;49.30;28.70;;;;;;;;;;5153330;27;20054;-53
2024/01/12 01:53:55;;;;;;;53.58;30.45;;;;;;;;;;5149727;27;20054;-52
2024/01/12 01:56:24;;;;;;;51.97;30.00;;;;;;;;;;5150743;27;20051;-52
2024/01/12 01:58:52;;;;;;;55.40;30.10;;;;;;;;;;5153283;27;20506;-55
2024/01/12 02:01:19;;;;;;;52.15;30.23;;;;;;;;;;5156000;27;20055;-50
2024/01/12 02:03:46;;;;;;;51.50;27.88;;;;;;;;;;5151676;27;20043;-52
2024/01/12 02:06:15;;;;;;;49.65;29.73;;;;;;;;;;5153313;27;20050;-52
2024/01/12 02:08:42;;;;;;;53.78;30.05;;;;;;;;;;5152644;27;20074;-53
2024/01/12 02:11:09;;;;;;;49.22;27.98;;;;;;;;;;5150572;27;20392;-54
2024/01/12 02:13:37;;;;;;;53.40;29.80;;;;;;;;;;5149831;27;20066;-52
2024/01/12 02:16:04;;;;;;;47.50;29.20;;;;;;;;;;5150577;27;20055;-51
2024/01/12 02:18:31;;;;;;;50.03;28.52;;;;;;;;;;5152077;27;20388;-52
2024/01/12 02:20:59;;;;;;;47.83;29.50;;;;;;;;;;5156435;27;20046;-51
2024/01/12 02:23:26;;;;;;;46.75;28.50;;;;;;;;;;5149739;27;20065;-50
2024/01/12 02:25:53;;;;;;;51.92;28.80;;;;;;;;;;5150295;27;20049;-52
2024/01/12 02:28:20;;;;;;;53.85;31.00;;;;;;;;;;5148812;27;20046;-53
2024/01/12 02:30:47;;;;;;;49.42;28.92;;;;;;;;;;5148973;27;20043;-54
2024/01/12 02:33:14;;;;;;;49.58;28.40;;;;;;;;;;5148341;27;20051;-50
2024/01/12 02:35:41;;;;;;;52.28;29.52;;;;;;;;;;5154463;27;20127;-52
2024/01/12 02:38:09;;;;;;;56.80;31.55;;;;;;;;;;5152021;27;20048;-52
2024/01/12 02:40:36;;;;;;;52.03;28.67;;;;;;;;;;5155778;27;20052;-53
2024/01/12 02:43:03;;;;;;;52.65;29.88;;;;;;;;;;5151061;27;20062;-54
2024/01/12 02:45:30;;;;;;;54.42;30.52;;;;;;;;;;5148314;27;20061;-53
2024/01/12 02:47:57;;;;;;;47.10;28.27;;;;;;;;;;5150558;27;20050;-52
2024/01/12 02:50:24;;;;;;;52.90;30.13;;;;;;;;;;5150280;27;20069;-52
2024/01/12 02:52:50;;;;;;;47.85;28.50;;;;;;;;;;5150891;27;20077;-53
2024/01/12 02:55:19;;;;;;;46.88;27.92;;;;;;;;;;5153549;27;20042;-52
2024/01/12 02:57:45;;;;;;;49.38;28.17;;;;;;;;;;5152694;27;20411;-50
2024/01/12 03:00:13;;;;;;;52.88;29.08;;;;;;;;;;5133545;27;20415;-50
2024/01/12 03:02:39;;;;;;;51.38;29.77;;;;;;;;;;5143118;27;20076;-50
2024/01/12 03:05:06;;;;;;;46.55;27.45;;;;;;;;;;5145620;27;20055;-53
2024/01/12 03:07:33;;;;;;;49.58;27.05;;;;;;;;;;5147696;27;20053;-49
2024/01/12 03:10:00;;;;;;;50.55;26.55;;;;;;;;;;5148673;27;20395;-52
2024/01/12 03:12:28;;;;;;;56.50;30.88;;;;;;;;;;5148347;27;20057;-53
2024/01/12 03:14:55;;;;;;;50.97;29.70;;;;;;;;;;5150706;27;20403;-51
2024/01/12 03:17:22;;;;;;;47.97;28.75;;;;;;;;;;5150663;27;20058;-51
2024/01/12 03:19:49;;;;;;;47.45;27.95;;;;;;;;;;5153068;27;20479;-49
2024/01/12 03:22:16;;;;;;;61.05;32.17;;;;;;;;;;5152285;27;20054;-49
2024/01/12 03:24:43;;;;;;;46.03;27.08;;;;;;;;;;5146148;27;20388;-53
2024/01/12 03:27:09;;;;;;;48.70;28.15;;;;;;;;;;5150315;27;20046;-51
2024/01/12 03:29:37;;;;;;;45.60;27.60;;;;;;;;;;5149478;27;20601;-52
2024/01/12 03:32:05;;;;;;;45.40;27.52;;;;;;;;;;5148029;27;20421;-53
2024/01/12 03:34:31;;;;;;;44.08;26.90;;;;;;;;;;5146991;27;20476;-51
2024/01/12 03:36:58;;;;;;;48.17;28.60;;;;;;;;;;5149397;27;20061;-50
2024/01/12 03:39:25;;;;;;;72.00;36.47;;;;;;;;;;5149533;27;20050;-52
2024/01/12 03:41:52;;;;;;;46.53;28.17;;;;;;;;;;5153840;27;20058;-49
2024/01/12 03:44:18;;;;;;;45.92;27.33;;;;;;;;;;5154129;27;20062;-50
2024/01/12 03:46:46;;;;;;;47.40;28.13;;;;;;;;;;5149546;27;20496;-49
2024/01/12 03:49:13;;;;;;;48.22;27.88;;;;;;;;;;5153160;27;20050;-49
2024/01/12 03:51:42;;;;;;;45.95;27.40;;;;;;;;;;5150013;27;20043;-52
2024/01/12 03:54:09;;;;;;;44.53;27.05;;;;;;;;;;5147296;27;20062;-50
2024/01/12 03:56:36;;;;;;;45.63;27.90;;;;;;;;;;5148094;27;20058;-51
2024/01/12 03:59:02;;;;;;;50.50;28.30;;;;;;;;;;5144616;27;20050;-49
2024/01/12 04:01:29;;;;;;;49.45;28.42;;;;;;;;;;5145447;27;20054;-52
2024/01/12 04:03:57;;;;;;;51.60;28.75;;;;;;;;;;5146446;27;20054;-52
2024/01/12 04:06:24;;;;;;;50.80;27.52;;;;;;;;;;5146661;27;20054;-54
2024/01/12 04:08:51;;;;;;;46.60;26.60;;;;;;;;;;5146685;27;20051;-51
2024/01/12 04:11:21;;;;;;;56.80;32.67;;;;;;;;;;5147659;27;20376;-52
2024/01/12 04:13:48;;;;;;;45.00;26.55;;;;;;;;;;5138836;27;20404;-52
2024/01/12 04:16:15;;;;;;;52.85;30.73;;;;;;;;;;5147185;27;20047;-50
2024/01/12 04:18:42;;;;;;;50.22;27.75;;;;;;;;;;5151358;27;20061;-50
2024/01/12 04:21:10;;;;;;;57.10;30.70;;;;;;;;;;5152320;27;20050;-49
2024/01/12 04:23:38;;;;;;;51.55;28.98;;;;;;;;;;5149069;27;20906;-51
2024/01/12 04:26:04;;;;;;;60.78;33.20;;;;;;;;;;5147600;27;20055;-52
2024/01/12 04:28:30;;;;;;;52.97;28.92;;;;;;;;;;5151288;27;20407;-51
2024/01/12 04:30:57;;;;;;;49.35;28.77;;;;;;;;;;5149669;27;20050;-51
2024/01/12 04:33:24;;;;;;;54.90;30.48;;;;;;;;;;5146861;27;20046;-49
2024/01/12 04:35:51;;;;;;;50.88;28.10;;;;;;;;;;5148673;27;20403;-53
2024/01/12 04:38:19;;;;;;;56.33;30.05;;;;;;;;;;5149515;27;20471;-53
2024/01/12 04:40:46;;;;;;;51.60;29.10;;;;;;;;;;5150780;27;20054;-51
2024/01/12 04:43:13;;;;;;;54.03;30.25;;;;;;;;;;5146947;27;20057;-53
2024/01/12 04:45:40;;;;;;;48.80;28.10;;;;;;;;;;5144942;27;20155;-53
2024/01/12 04:48:07;;;;;;;53.13;27.50;;;;;;;;;;5145311;27;20059;-53
2024/01/12 04:50:34;;;;;;;51.53;29.77;;;;;;;;;;5146838;27;20051;-54
2024/01/12 04:53:00;;;;;;;50.13;28.77;;;;;;;;;;5146521;27;20448;-50
2024/01/12 04:55:29;;;;;;;50.42;28.15;;;;;;;;;;5152186;27;20146;-53
2024/01/12 04:57:55;;;;;;;52.72;29.00;;;;;;;;;;5149489;27;20047;-51
2024/01/12 05:00:22;;;;;;;54.45;29.92;;;;;;;;;;5147748;27;20051;-54
2024/01/12 05:02:49;;;;;;;54.47;29.92;;;;;;;;;;5139455;27;20488;-51
2024/01/12 05:05:16;;;;;;;52.60;28.85;;;;;;;;;;5145387;27;21032;-52
2024/01/12 05:07:43;;;;;;;54.83;29.50;;;;;;;;;;5144848;27;20051;-54
2024/01/12 05:10:10;;;;;;;73.38;34.22;;;;;;;;;;5146351;27;20085;-52
2024/01/12 05:12:39;;;;;;;52.72;29.70;;;;;;;;;;5146432;27;20050;-51
2024/01/12 05:15:06;;;;;;;52.20;28.52;;;;;;;;;;5145020;27;20051;-53
2024/01/12 05:17:33;;;;;;;57.22;30.83;;;;;;;;;;5146879;27;20492;-51
2024/01/12 05:20:06;;;;;;;52.40;28.40;;;;;;;;;;5146382;27;20047;-50
2024/01/12 05:22:33;;;;;;;53.05;28.55;;;;;;;;;;5144781;27;20059;-51
2024/01/12 05:25:00;;;;;;;55.63;29.13;;;;;;;;;;5150898;27;20141;-50
2024/01/12 05:27:27;;;;;;;57.70;30.77;;;;;;;;;;5146636;27;20047;-54
2024/01/12 05:29:55;;;;;;;45.72;24.00;;;;;;;;;;5146270;27;20054;-53
2024/01/12 05:32:22;;;;;;;43.40;22.42;;;;;;;;;;5146938;27;20442;-51
2024/01/12 05:34:48;;;;;;;46.53;22.75;;;;;;;;;;5147688;27;20057;-50
2024/01/12 05:37:15;;;;;;;47.10;23.50;;;;;;;;;;5141829;27;20051;-51
2024/01/12 05:39:42;;;;;;;47.17;22.20;;;;;;;;;;5153940;27;20050;-50
2024/01/12 05:42:09;;;;;;;46.80;21.45;;;;;;;;;;5139638;27;20507;-53
2024/01/12 05:44:36;;;;;;;44.63;20.13;;;;;;;;;;5133368;28;20055;-51
2024/01/12 05:47:04;;;;;;;44.13;20.73;;;;;;;;;;5141939;27;20054;-54
2024/01/12 05:49:31;;;;;;;43.22;19.05;;;;;;;;;;5157472;27;20050;-50
2024/01/12 05:51:58;;;;;;;35.95;17.27;;;;;;;;;;5156490;27;21370;-53
2024/01/12 05:54:25;;;;;;;31.30;15.75;;;;;;;;;;5150865;27;20043;-51
2024/01/12 05:56:51;;;;;;;34.80;17.17;;;;;;;;;;5151818;27;20062;-52
2024/01/12 05:59:20;;;;;;;37.38;16.65;;;;;;;;;;5154939;27;20038;-52
2024/01/12 06:01:50;;;;;;;33.63;17.25;;;;;;;;;;5154548;27;20507;-53
2024/01/12 06:04:18;;;;;;;37.03;17.92;;;;;;;;;;5155178;27;20057;-52
2024/01/12 06:06:46;;;;;;;26.50;13.82;;;;;;;;;;5149739;27;20407;-53
2024/01/12 06:09:13;;;;;;;28.10;14.63;;;;;;;;;;5155393;27;20050;-53
2024/01/12 06:11:42;;;;;;;25.77;13.48;;;;;;;;;;5151908;27;20046;-54
2024/01/12 06:14:08;;;;;;;24.98;13.35;;;;;;;;;;5153917;27;20480;-50
2024/01/12 06:16:35;;;;;;;23.35;14.30;;;;;;;;;;5154898;27;20058;-52
2024/01/12 06:19:02;;;;;;;23.70;12.68;;;;;;;;;;5154976;27;20054;-53
2024/01/12 06:21:30;;;;;;;26.23;13.65;;;;;;;;;;5156701;27;20046;-52
2024/01/12 06:23:57;;;;;;;23.15;12.63;;;;;;;;;;5156412;27;20057;-53
2024/01/12 06:26:24;;;;;;;24.77;13.23;;;;;;;;;;5155269;27;20058;-51
2024/01/12 06:28:50;;;;;;;24.73;13.52;;;;;;;;;;5154434;27;20042;-51
2024/01/12 06:31:17;;;;;;;24.45;14.10;;;;;;;;;;5154748;27;20043;-53
2024/01/12 06:33:44;;;;;;;27.52;14.20;;;;;;;;;;5156315;27;20054;-53
2024/01/12 06:36:11;;;;;;;26.13;14.02;;;;;;;;;;5155927;27;20054;-54
2024/01/12 06:38:39;;;;;;;31.05;17.85;;;;;;;;;;5156498;27;20043;-54
2024/01/12 06:41:06;;;;;;;27.25;14.07;;;;;;;;;;5155439;27;20062;-53
2024/01/12 06:43:33;;;;;;;30.95;14.48;;;;;;;;;;5154701;27;20054;-50
2024/01/12 06:46:00;;;;;;;30.23;14.43;;;;;;;;;;5156088;27;20116;-53
2024/01/12 06:48:26;;;;;;;34.65;16.13;;;;;;;;;;5151920;27;20046;-51
2024/01/12 06:50:53;;;;;;;33.47;16.10;;;;;;;;;;5153847;27;20507;-53
2024/01/12 06:53:20;;;;;;;33.85;16.92;;;;;;;;;;5142631;27;20062;-50
2024/01/12 06:55:50;;;;;;;34.53;16.17;;;;;;;;;;5123682;27;20100;-52
2024/01/12 06:58:16;;;;;;;32.35;16.63;;;;;;;;;;5114253;28;20054;-52
2024/01/12 07:00:43;;;;;;;32.90;16.42;;;;;;;;;;5119581;27;20058;-53
2024/01/12 07:03:10;;;;;;;37.78;16.77;;;;;;;;;;5133113;27;20066;-51
2024/01/12 07:05:37;;;;;;;36.75;17.40;;;;;;;;;;5133431;27;20062;-49
2024/01/12 07:08:04;;;;;;;36.60;17.75;;;;;;;;;;5133204;27;20051;-52
2024/01/12 07:10:31;;;;;;;38.10;17.98;;;;;;;;;;5114852;27;20058;-53
2024/01/12 07:12:59;;;;;;;32.55;17.90;;;;;;;;;;5114281;28;20492;-54
2024/01/12 07:15:26;;;;;;;40.05;19.27;;;;;;;;;;5114221;28;20051;-54
2024/01/12 07:17:52;;;;;;;37.33;18.92;;;;;;;;;;5114191;28;20051;-52
2024/01/12 07:20:19;;;;;;;39.60;19.38;;;;;;;;;;5129138;27;20047;-52
2024/01/12 07:22:46;;;;;;;41.58;19.40;;;;;;;;;;5135761;27;20051;-52
2024/01/12 07:25:13;;;;;;;37.00;18.20;;;;;;;;;;5131233;27;20047;-53
2024/01/12 07:27:40;;;;;;;42.92;20.33;;;;;;;;;;5123671;27;20050;-53
2024/01/12 07:30:08;;;;;;;41.65;21.20;;;;;;;;;;5127322;27;20051;-51
2024/01/12 07:32:35;;;;;;;44.97;21.33;;;;;;;;;;5129715;27;20050;-53
2024/01/12 07:35:02;;;;;;;39.55;19.85;;;;;;;;;;5129062;27;20059;-52
2024/01/12 07:37:29;;;;;;;48.10;23.58;;;;;;;;;;5133520;27;20154;-56
2024/01/12 07:39:56;;;;;;;45.22;21.95;;;;;;;;;;5128565;27;20055;-53
2024/01/12 07:42:22;;;;;;;41.13;20.38;;;;;;;;;;5128367;27;20054;-53
2024/01/12 07:44:49;;;;;;;43.33;21.40;;;;;;;;;;5127345;27;20059;-52
2024/01/12 07:47:18;;;;;;;38.75;20.45;;;;;;;;;;5125345;27;20057;-53
2024/01/12 07:49:44;;;;;;;39.60;18.80;;;;;;;;;;5129375;27;20071;-51
2024/01/12 07:52:11;;;;;;;38.92;20.38;;;;;;;;;;5129112;27;20051;-52
2024/01/12 07:54:38;;;;;;;42.03;21.15;;;;;;;;;;5149122;27;20046;-53
2024/01/12 07:57:05;;;;;;;40.17;19.75;;;;;;;;;;5148119;27;20050;-53
2024/01/12 07:59:32;;;;;;;33.45;18.40;;;;;;;;;;5149868;27;20403;-53
2024/01/12 08:01:59;;;;;;;38.17;19.77;;;;;;;;;;5155503;27;20050;-55
2024/01/12 08:04:27;;;;;;;37.08;19.60;;;;;;;;;;5149024;27;20047;-57
2024/01/12 08:06:54;;;;;;;37.50;20.15;;;;;;;;;;5149667;27;20503;-54
2024/01/12 08:09:21;;;;;;;38.70;19.30;;;;;;;;;;5147879;27;20050;-52
2024/01/12 08:11:47;;;;;;;38.42;18.38;;;;;;;;;;5147495;27;20050;-50
2024/01/12 08:14:15;;;;;;;33.92;18.35;;;;;;;;;;5148519;27;20428;-50
2024/01/12 08:16:41;;;;;;;30.13;16.02;;;;;;;;;;5151753;27;20046;-51
2024/01/12 08:19:08;;;;;;;24.52;14.68;;;;;;;;;;5149837;27;20399;-52
2024/01/12 08:21:37;;;;;;;20.35;12.80;;;;;;;;;;5148924;27;20058;-51
2024/01/12 08:24:04;;;;;;;21.25;12.93;;;;;;;;;;5146993;27;20051;-53
2024/01/12 08:26:31;;;;;;;19.42;12.75;;;;;;;;;;5148584;27;20069;-51
2024/01/12 08:29:01;;;;;;;18.90;12.40;;;;;;;;;;5149279;27;20055;-52
2024/01/12 08:31:28;;;;;;;21.83;15.25;;;;;;;;;;5146417;27;20066;-51
2024/01/12 08:33:55;;;;;;;21.75;14.93;;;;;;;;;;5148535;27;20046;-53
2024/01/12 08:36:21;;;;;;;20.70;13.40;;;;;;;;;;5149966;27;20085;-53
2024/01/12 08:38:50;;;;;;;18.00;12.25;;;;;;;;;;5150230;27;20423;-54
2024/01/12 08:41:17;;;;;;;17.58;12.07;;;;;;;;;;5146671;27;20061;-53
2024/01/12 08:43:43;;;;;;;17.33;12.05;;;;;;;;;;5149133;27;20045;-53
2024/01/12 08:46:10;;;;;;;16.05;10.52;;;;;;;;;;5151023;27;20055;-56
2024/01/12 08:48:37;;;;;;;17.10;10.70;;;;;;;;;;5149273;27;20069;-52
2024/01/12 08:51:04;;;;;;;15.77;11.68;;;;;;;;;;5148404;27;20050;-52
2024/01/12 08:53:31;;;;;;;15.85;10.98;;;;;;;;;;5143200;27;20043;-53
2024/01/12 08:55:59;;;;;;;14.27;9.80;;;;;;;;;;5123500;27;20483;-52
2024/01/12 08:58:26;;;;;;;15.05;10.93;;;;;;;;;;5124530;27;20047;-55
2024/01/12 09:00:53;;;;;;;14.57;10.32;;;;;;;;;;5129284;27;20092;-50
2024/01/12 09:03:20;;;;;;;15.63;10.65;;;;;;;;;;5127037;27;20050;-52
2024/01/12 09:05:47;;;;;;;12.88;7.47;;;;;;;;;;5125868;27;20063;-54
2024/01/12 09:08:14;;;;;;;12.70;9.23;;;;;;;;;;5134844;27;20054;-51
2024/01/12 09:10:41;;;;;;;17.60;12.13;;;;;;;;;;5127998;27;20519;-52
2024/01/12 09:13:09;;;;;;;14.55;10.20;;;;;;;;;;5134537;27;20051;-51
2024/01/12 09:15:35;;;;;;;15.27;9.30;;;;;;;;;;5129115;27;20387;-51
2024/01/12 09:18:03;;;;;;;12.85;9.48;;;;;;;;;;5129867;27;20055;-54
2024/01/12 09:20:32;;;;;;;14.80;9.68;;;;;;;;;;5137285;27;20050;-54
2024/01/12 09:22:58;;;;;;;12.05;8.18;;;;;;;;;;5127989;27;20403;-57
2024/01/12 09:25:26;;;;;;;12.80;9.27;;;;;;;;;;5131325;27;20061;-52
2024/01/12 09:27:52;;;;;;;12.90;8.98;;;;;;;;;;5137856;27;20055;-54
2024/01/12 09:30:21;;;;;;;13.73;9.00;;;;;;;;;;5129531;27;20063;-54
2024/01/12 09:32:48;;;;;;;13.70;8.70;;;;;;;;;;5136096;27;20058;-54
2024/01/12 09:35:15;;;;;;;11.95;8.63;;;;;;;;;;5129589;27;20051;-55
2024/01/12 09:37:41;;;;;;;14.48;8.15;;;;;;;;;;5135128;27;20065;-53
2024/01/12 09:40:09;;;;;;;13.38;8.88;;;;;;;;;;5128023;27;20055;-53
2024/01/12 09:42:37;;;;;;;11.27;8.38;;;;;;;;;;5139100;27;20047;-50
2024/01/12 09:45:05;;;;;;;12.90;9.35;;;;;;;;;;5133347;27;20058;-53
2024/01/12 09:47:33;;;;;;;13.68;9.48;;;;;;;;;;5127342;27;20059;-54
2024/01/12 09:50:00;;;;;;;14.65;10.20;;;;;;;;;;5129707;27;20419;-54
2024/01/12 09:52:27;;;;;;;16.17;10.38;;;;;;;;;;5133338;27;21126;-55
2024/01/12 09:54:54;;;;;;;14.10;9.68;;;;;;;;;;5130579;27;20043;-51
2024/01/12 09:57:22;;;;;;;13.27;9.32;;;;;;;;;;5127389;27;20054;-55
2024/01/12 09:59:49;;;;;;;12.60;9.65;;;;;;;;;;5137794;27;20059;-53
2024/01/12 10:02:16;;;;;;;10.18;8.48;;;;;;;;;;5140293;27;20051;-53
2024/01/12 10:04:44;;;;;;;12.20;8.50;;;;;;;;;;5131060;27;20399;-52
2024/01/12 10:07:11;;;;;;;10.85;8.05;;;;;;;;;;5121949;27;20058;-53
2024/01/12 10:09:38;;;;;;;11.32;8.00;;;;;;;;;;5128090;27;20055;-53
2024/01/12 10:12:05;;;;;;;12.32;8.65;;;;;;;;;;5123600;27;20059;-53
2024/01/12 10:14:32;;;;;;;12.80;8.38;;;;;;;;;;5134076;27;20050;-53
2024/01/12 10:17:00;;;;;;;12.38;9.18;;;;;;;;;;5139902;27;20066;-55
2024/01/12 10:19:28;;;;;;;14.43;9.73;;;;;;;;;;5129451;27;20408;-55
2024/01/12 10:21:57;;;;;;;11.18;8.07;;;;;;;;;;5134029;27;20054;-53
2024/01/12 10:24:23;;;;;;;12.68;8.73;;;;;;;;;;5130726;27;20043;-53
2024/01/12 10:26:52;;;;;;;16.20;10.70;;;;;;;;;;5125708;27;20058;-54
2024/01/12 10:29:19;;;;;;;16.15;10.57;;;;;;;;;;5129782;27;21136;-53
2024/01/12 10:31:46;;;;;;;17.20;11.43;;;;;;;;;;5129980;27;20059;-54
2024/01/12 10:34:13;;;;;;;15.95;10.52;;;;;;;;;;5132240;27;20406;-54
2024/01/12 10:36:40;;;;;;;16.17;11.13;;;;;;;;;;5129766;27;20046;-55
2024/01/12 10:39:09;;;;;;;18.63;11.57;;;;;;;;;;5126383;27;20051;-53
2024/01/12 10:41:36;;;;;;;16.33;11.70;;;;;;;;;;5131117;27;20055;-53
2024/01/12 10:44:04;;;;;;;16.52;10.85;;;;;;;;;;5132506;27;20054;-53
2024/01/12 10:46:34;;;;;;;20.52;13.02;;;;;;;;;;5127219;27;20047;-54
2024/01/12 10:49:01;;;;;;;;;;;;;;;;;;5129893;27;20054;-53
2024/01/12 10:51:31;;;;;;;21.15;12.70;;;;;;;;;;5127111;27;19930;-53
2024/01/12 10:54:01;;;;;;;21.92;13.23;;;;;;;;;;5146133;27;20484;-56
2024/01/12 10:56:35;;;;;;;21.23;13.63;;;;;;;;;;5149663;27;20099;-53
2024/01/12 10:59:02;;;;;;;22.45;13.45;;;;;;;;;;5131242;27;20073;-51
2024/01/12 11:01:29;;;;;;;23.85;15.13;;;;;;;;;;5149580;27;20053;-55
2024/01/12 11:03:56;;;;;;;23.25;14.30;;;;;;;;;;5149100;27;20050;-59
2024/01/12 11:06:23;;;;;;;23.55;14.80;;;;;;;;;;5148046;27;20049;-58
2024/01/12 11:08:51;;;;;;;28.27;17.50;;;;;;;;;;5150258;27;20069;-57
2024/01/12 11:11:19;;;;;;;30.55;17.63;;;;;;;;;;5149977;27;20062;-57
2024/01/12 11:13:47;;;;;;;31.30;19.05;;;;;;;;;;5150395;27;20620;-57
2024/01/12 11:16:14;;;;;;;29.55;19.02;;;;;;;;;;5148482;27;20069;-57
2024/01/12 11:18:41;;;;;;;33.33;20.35;;;;;;;;;;5146910;27;20047;-58
2024/01/12 11:21:08;;;;;;;33.72;22.20;;;;;;;;;;5145533;27;20054;-56
2024/01/12 11:23:41;;;;;;;34.83;21.98;;;;;;;;;;5147949;27;20049;-57
2024/01/12 11:26:09;;;;;;;34.67;20.92;;;;;;;;;;5148642;27;20062;-57
2024/01/12 11:28:36;;;;;;;34.85;20.55;;;;;;;;;;5150399;27;20054;-57
2024/01/12 11:31:05;;;;;;;32.33;20.95;;;;;;;;;;5149958;27;20061;-56
2024/01/12 11:33:38;;;;;;;37.58;22.13;;;;;;;;;;5147884;27;20047;-57
2024/01/12 11:36:09;;;;;;;36.83;25.17;;;;;;;;;;5148113;27;20061;-58
2024/01/12 11:38:42;;;;;;;30.33;18.98;;;;;;;;;;5148262;27;20058;-56
2024/01/12 11:41:10;;;;;;;35.65;20.15;;;;;;;;;;5146579;27;20062;-56
2024/01/12 11:43:40;;;;;;;33.53;20.10;;;;;;;;;;5149730;27;20046;-56
2024/01/12 11:46:09;;;;;;;34.72;20.88;;;;;;;;;;5151670;27;20054;-56
2024/01/12 11:48:35;;;;;;;34.05;20.15;;;;;;;;;;5153958;27;20050;-56
2024/01/12 11:51:03;;;;;;;33.75;20.15;;;;;;;;;;5154982;27;20473;-56
2024/01/12 11:53:32;;;;;;;35.67;21.13;;;;;;;;;;5154252;27;20392;-59
2024/01/12 11:55:59;;;;;;;37.25;20.90;;;;;;;;;;5153178;27;20400;-58
2024/01/12 11:58:25;;;;;;;40.78;22.35;;;;;;;;;;5151941;27;20427;-54
2024/01/12 12:00:52;;;;;;;41.65;23.10;;;;;;;;;;5152434;27;20051;-55
2024/01/12 12:03:23;;;;;;;44.55;22.95;;;;;;;;;;5137397;27;21466;-56
2024/01/12 12:05:49;;;;;;;42.65;23.70;;;;;;;;;;5145655;27;20070;-57
2024/01/12 12:08:16;;;;;;;35.90;21.25;;;;;;;;;;5145661;27;20058;-58
2024/01/12 12:10:43;;;;;;;37.72;22.02;;;;;;;;;;5149123;27;20050;-57
2024/01/12 12:13:11;;;;;;;33.47;19.70;;;;;;;;;;5148777;27;20054;-59
2024/01/12 12:15:38;;;;;;;35.40;20.92;;;;;;;;;;5146018;27;20419;-57
2024/01/12 12:18:05;;;;;;;36.30;21.45;;;;;;;;;;5149240;27;20046;-57
2024/01/12 12:20:34;;;;;;;38.28;22.00;;;;;;;;;;5148766;27;20062;-56
2024/01/12 12:23:01;;;;;;;39.50;22.02;;;;;;;;;;5147733;27;20081;-57
2024/01/12 12:25:28;;;;;;;37.95;21.95;;;;;;;;;;5147885;27;20059;-57
2024/01/12 12:27:55;;;;;;;37.92;22.90;;;;;;;;;;5147116;27;20427;-56
2024/01/12 12:30:21;;;;;;;37.35;21.88;;;;;;;;;;5146739;27;20050;-56
2024/01/12 12:32:49;;;;;;;39.58;22.75;;;;;;;;;;5147047;27;20051;-56
2024/01/12 12:35:17;;;;;;;38.50;22.50;;;;;;;;;;5147196;27;20403;-56
2024/01/12 12:37:46;;;;;;;39.13;22.38;;;;;;;;;;5145970;27;20054;-57
2024/01/12 12:40:13;;;;;;;40.53;22.98;;;;;;;;;;5146110;27;20054;-57
2024/01/12 12:42:41;;;;;;;39.60;23.58;;;;;;;;;;5147225;27;20053;-56
2024/01/12 12:45:09;;;;;;;38.55;22.67;;;;;;;;;;5150066;27;20054;-58
2024/01/12 12:47:37;;;;;;;40.25;24.17;;;;;;;;;;5150616;27;20424;-56
2024/01/12 12:50:04;;;;;;;41.13;25.02;;;;;;;;;;5144381;27;20043;-56
2024/01/12 12:52:31;;;;;;;38.55;22.60;;;;;;;;;;5102649;27;20455;-55
2024/01/12 12:54:59;;;;;;;40.90;23.00;;;;;;;;;;5107395;28;20059;-56
2024/01/12 12:57:26;;;;;;;39.88;23.48;;;;;;;;;;5113302;27;20062;-55
2024/01/12 12:59:53;;;;;;;41.95;24.63;;;;;;;;;;5111138;27;20492;-57
2024/01/12 13:02:20;;;;;;;42.80;23.77;;;;;;;;;;5112417;27;20055;-56
2024/01/12 13:04:47;;;;;;;43.10;24.95;;;;;;;;;;5113564;27;20043;-54
2024/01/12 13:07:14;;;;;;;45.67;25.35;;;;;;;;;;5109212;27;20051;-58
2024/01/12 13:09:41;;;;;;;55.67;29.33;;;;;;;;;;5109171;27;20051;-57
2024/01/12 13:12:09;;;;;;;49.50;26.60;;;;;;;;;;5111228;27;20062;-59
2024/01/12 13:14:36;;;;;;;44.88;25.23;;;;;;;;;;5112355;27;20044;-57
2024/01/12 13:17:03;;;;;;;51.22;27.88;;;;;;;;;;5112229;27;20059;-57
2024/01/12 13:19:30;;;;;;;47.35;27.10;;;;;;;;;;5110511;28;20059;-57
2024/01/12 13:21:57;;;;;;;47.25;27.23;;;;;;;;;;5114200;27;20058;-57
2024/01/12 13:24:24;;;;;;;43.97;26.05;;;;;;;;;;5113796;27;20431;-57
2024/01/12 13:26:51;;;;;;;43.95;26.27;;;;;;;;;;5113201;27;20063;-57
2024/01/12 13:29:19;;;;;;;43.88;25.95;;;;;;;;;;5112590;27;20047;-57
2024/01/12 13:31:46;;;;;;;54.10;27.98;;;;;;;;;;5112435;27;20051;-39
2024/01/12 13:34:14;;;;;;;44.28;26.27;;;;;;;;;;5110294;28;20055;-57
2024/01/12 13:36:44;;;;;;;42.88;25.55;;;;;;;;;;5114002;27;20052;-60
2024/01/12 13:39:11;;;;;;;41.28;24.85;;;;;;;;;;5107926;27;20696;-59
2024/01/12 13:41:39;;;;;;;42.75;26.67;;;;;;;;;;5128068;27;20500;-56
2024/01/12 13:44:05;;;;;;;44.50;28.13;;;;;;;;;;5134817;27;20054;-57
2024/01/12 13:46:33;;;;;;;43.05;25.30;;;;;;;;;;5126475;27;20358;-57
2024/01/12 13:49:00;;;;;;;43.10;26.55;;;;;;;;;;5115505;28;20055;-57
2024/01/12 13:51:27;;;;;;;41.17;26.40;;;;;;;;;;5112713;27;20055;-57
2024/01/12 13:53:54;;;;;;;44.42;27.38;;;;;;;;;;5121925;27;20065;-57
2024/01/12 13:56:21;;;;;;;43.15;27.02;;;;;;;;;;5135941;27;20051;-57
2024/01/12 13:58:48;;;;;;;44.58;27.23;;;;;;;;;;5109907;27;20057;-57
2024/01/12 14:01:15;;;;;;;42.63;26.08;;;;;;;;;;5120001;27;20411;-57
2024/01/12 14:03:46;;;;;;;43.35;26.98;;;;;;;;;;5117782;27;20051;-57
2024/01/12 14:06:13;;;;;;;41.22;26.48;;;;;;;;;;5115833;27;20055;-56
2024/01/12 14:08:42;;;;;;;45.60;27.02;;;;;;;;;;5115461;27;20056;-56
2024/01/12 14:11:09;;;;;;;48.85;29.25;;;;;;;;;;5114848;27;20063;-58
2024/01/12 14:13:36;;;;;;;51.38;29.55;;;;;;;;;;5124991;27;20063;-57
2024/01/12 14:16:03;;;;;;;46.13;28.52;;;;;;;;;;5117006;27;20059;-57
2024/01/12 14:18:30;;;;;;;45.67;26.55;;;;;;;;;;5112345;27;20385;-58